Time;durP1;ratioP1;P1;durP2;ratioP2;P2;SDS_P1;SDS_P2;PMS_P1;PMS_P2;Temp;Humidity;BMP_temperature;BMP_pressure;BME280_temperature;BME280_humidity;BME280_pressure;Samples;Min_cycle;Max_cycle;Signal;HPM_P1;HPM_P2
2023/08/26 00:00:23;;;;;;;3.70;2.10;;;18.20;99.90;;;;;;5052604;28;20223;-24
2023/08/26 00:02:51;;;;;;;3.90;2.05;;;18.10;99.90;;;;;;5072797;28;20289;-23
2023/08/26 00:05:22;;;;;;;4.78;2.13;;;18.10;99.90;;;;;;5066267;28;20203;-23
2023/08/26 00:07:50;;;;;;;4.93;2.22;;;18.10;99.90;;;;;;5067567;28;20250;-24
2023/08/26 00:10:17;;;;;;;3.13;2.35;;;18.00;99.90;;;;;;5053121;28;20681;-23
2023/08/26 00:12:44;;;;;;;5.00;1.80;;;18.00;99.90;;;;;;5060561;28;20751;-23
2023/08/26 00:15:11;;;;;;;4.45;2.20;;;17.90;99.90;;;;;;5064027;28;20218;-23
2023/08/26 00:17:38;;;;;;;4.57;2.30;;;17.90;99.90;;;;;;5060686;28;20266;-23
2023/08/26 00:20:09;;;;;;;5.97;2.40;;;17.90;99.90;;;;;;5076559;28;20258;-23
2023/08/26 00:22:38;;;;;;;6.32;2.33;;;17.90;99.90;;;;;;5043816;28;20283;-23
2023/08/26 00:25:09;;;;;;;5.93;2.03;;;17.90;99.90;;;;;;5038084;28;20215;-23
2023/08/26 00:27:41;;;;;;;6.32;2.10;;;17.80;99.90;;;;;;5048640;28;20210;-23
2023/08/26 00:30:13;;;;;;;2.85;1.95;;;17.80;99.90;;;;;;5036334;28;20310;-23
2023/08/26 00:32:43;;;;;;;4.78;2.30;;;17.80;99.90;;;;;;5069579;28;20219;-24
2023/08/26 00:35:10;;;;;;;4.35;2.00;;;17.70;99.90;;;;;;5050742;28;20705;-24
2023/08/26 00:37:43;;;;;;;3.90;1.80;;;17.70;99.90;;;;;;5034923;28;20688;-23
2023/08/26 00:40:18;;;;;;;4.55;1.80;;;17.70;99.90;;;;;;5045667;28;20294;-24
2023/08/26 00:42:53;;;;;;;3.38;1.80;;;17.70;99.90;;;;;;5052855;28;20557;-23
2023/08/26 00:45:23;;;;;;;4.43;2.08;;;17.70;99.90;;;;;;5069305;28;20747;-23
2023/08/26 00:47:52;;;;;;;3.63;1.75;;;17.60;99.90;;;;;;5058696;28;20232;-23
2023/08/26 00:50:20;;;;;;;1.98;1.65;;;17.60;99.90;;;;;;5048584;28;20565;-24
2023/08/26 00:52:52;;;;;;;3.05;1.50;;;17.60;99.90;;;;;;5053021;28;20243;-23
2023/08/26 00:55:25;;;;;;;5.20;1.93;;;17.60;99.90;;;;;;5029604;28;20204;-23
2023/08/26 00:57:55;;;;;;;2.93;1.80;;;17.60;99.90;;;;;;5048713;28;20210;-23
2023/08/26 01:00:23;;;;;;;3.30;2.00;;;17.60;99.90;;;;;;5057705;28;20192;-23
2023/08/26 01:02:53;;;;;;;4.43;1.90;;;17.50;99.90;;;;;;5032311;28;20216;-24
2023/08/26 01:05:20;;;;;;;6.22;2.15;;;17.50;99.90;;;;;;5064529;28;20227;-24
2023/08/26 01:07:48;;;;;;;4.13;2.13;;;17.50;99.90;;;;;;5035412;28;20200;-23
2023/08/26 01:10:16;;;;;;;5.23;2.07;;;17.50;99.90;;;;;;5035761;28;20652;-24
2023/08/26 01:13:05;;;;;;;4.33;1.90;;;17.40;99.90;;;;;;5058618;28;20561;-24
2023/08/26 01:15:37;;;;;;;6.55;1.90;;;17.40;99.90;;;;;;5047352;28;20210;-24
2023/08/26 01:18:10;;;;;;;6.13;1.92;;;17.40;99.90;;;;;;5059097;28;20303;-24
2023/08/26 01:20:43;;;;;;;2.80;1.67;;;17.30;99.90;;;;;;5054881;28;20226;-24
2023/08/26 01:23:20;;;;;;;4.13;2.07;;;17.30;99.90;;;;;;5079399;28;20570;-23
2023/08/26 01:25:47;;;;;;;3.95;1.88;;;17.30;99.90;;;;;;5034521;28;20222;-24
2023/08/26 01:28:17;;;;;;;4.25;1.77;;;17.30;99.90;;;;;;5048760;28;20199;-24
2023/08/26 01:30:44;;;;;;;4.47;1.85;;;17.30;99.90;;;;;;5059672;28;20236;-24
2023/08/26 01:33:28;;;;;;;4.53;2.30;;;17.30;99.90;;;;;;5050211;28;20250;-24
2023/08/26 01:36:02;;;;;;;4.53;1.95;;;17.20;99.90;;;;;;5066671;28;20207;-24
2023/08/26 01:38:36;;;;;;;4.97;2.10;;;17.20;99.90;;;;;;5053282;28;20296;-23
2023/08/26 01:41:06;;;;;;;6.93;2.40;;;17.20;99.90;;;;;;5088931;28;20519;-24
2023/08/26 01:43:36;;;;;;;5.67;2.30;;;17.20;99.90;;;;;;5060930;28;20208;-24
2023/08/26 01:46:08;;;;;;;6.23;2.60;;;17.20;99.90;;;;;;5045471;28;20236;-24
2023/08/26 01:48:35;;;;;;;6.47;2.60;;;17.20;99.90;;;;;;5030631;28;20200;-24
2023/08/26 01:51:04;;;;;;;7.43;3.10;;;17.20;99.90;;;;;;5047620;28;20213;-24
2023/08/26 01:53:34;;;;;;;6.00;2.70;;;17.20;99.90;;;;;;5066305;28;20196;-23
2023/08/26 01:56:01;;;;;;;6.50;3.20;;;17.20;99.90;;;;;;5056136;28;20315;-24
2023/08/26 01:58:28;;;;;;;6.00;3.38;;;17.10;99.90;;;;;;5064756;28;20209;-24
2023/08/26 02:00:56;;;;;;;5.27;3.03;;;17.10;99.90;;;;;;5047540;28;20345;-24
2023/08/26 02:03:25;;;;;;;6.83;3.27;;;17.10;99.90;;;;;;5067942;28;20247;-24
2023/08/26 02:05:55;;;;;;;6.57;3.78;;;17.10;99.90;;;;;;5062810;28;20195;-24
2023/08/26 02:08:22;;;;;;;11.48;3.50;;;17.10;99.90;;;;;;5066914;28;20237;-24
2023/08/26 02:10:58;;;;;;;7.82;4.05;;;17.00;99.90;;;;;;5043988;28;20202;-24
2023/08/26 02:13:27;;;;;;;9.80;4.20;;;17.00;99.90;;;;;;5071933;28;20301;-24
2023/08/26 02:15:58;;;;;;;7.97;3.90;;;17.00;99.90;;;;;;5069940;28;20210;-24
2023/08/26 02:18:25;;;;;;;10.65;4.03;;;17.00;99.90;;;;;;5078812;28;20210;-24
2023/08/26 02:20:52;;;;;;;9.75;3.90;;;16.90;99.90;;;;;;5066108;28;20696;-24
2023/08/26 02:23:19;;;;;;;6.63;4.03;;;16.90;99.90;;;;;;5033690;28;20352;-24
2023/08/26 02:25:46;;;;;;;10.48;4.40;;;16.90;99.90;;;;;;5031851;28;20741;-24
2023/08/26 02:28:14;;;;;;;7.25;3.80;;;16.90;99.90;;;;;;5051222;28;20702;-24
2023/08/26 02:30:43;;;;;;;9.00;4.22;;;16.90;99.90;;;;;;5073723;28;20300;-24
2023/08/26 02:33:12;;;;;;;8.00;4.38;;;16.90;99.90;;;;;;5065706;28;20269;-24
2023/08/26 02:35:46;;;;;;;8.30;4.13;;;16.90;99.90;;;;;;5061639;28;20199;-24
2023/08/26 02:38:16;;;;;;;8.85;3.95;;;16.90;99.90;;;;;;5063239;28;20302;-24
2023/08/26 02:40:54;;;;;;;7.90;4.03;;;16.90;99.90;;;;;;5060552;28;20689;-24
2023/08/26 02:43:22;;;;;;;8.32;3.90;;;16.80;99.90;;;;;;5078698;28;20577;-24
2023/08/26 02:45:53;;;;;;;7.57;4.28;;;16.90;99.90;;;;;;5076148;28;20239;-23
2023/08/26 02:48:27;;;;;;;10.25;4.65;;;16.90;99.90;;;;;;5045878;28;20213;-24
2023/08/26 02:51:04;;;;;;;12.13;4.88;;;16.90;99.90;;;;;;5052740;28;20294;-24
2023/08/26 02:53:33;;;;;;;10.02;4.90;;;16.90;99.90;;;;;;5030430;28;20211;-24
2023/08/26 02:56:00;;;;;;;12.48;5.10;;;16.90;99.90;;;;;;5046517;28;20197;-24
2023/08/26 02:58:28;;;;;;;10.82;4.57;;;16.90;99.90;;;;;;5063196;28;20203;-24
2023/08/26 03:01:00;;;;;;;11.38;5.18;;;16.90;99.90;;;;;;5029713;28;20203;-23
2023/08/26 03:03:32;;;;;;;8.55;5.03;;;16.80;99.90;;;;;;5060148;28;20297;-24
2023/08/26 03:06:02;;;;;;;12.13;4.90;;;16.80;99.90;;;;;;5064236;28;20211;-24
2023/08/26 03:08:29;;;;;;;13.38;5.53;;;16.80;99.90;;;;;;5043637;28;20587;-24
2023/08/26 03:11:04;;;;;;;11.93;5.53;;;16.80;99.90;;;;;;5066757;28;20598;-24
2023/08/26 03:13:33;;;;;;;13.13;5.68;;;16.80;99.90;;;;;;5046319;28;20207;-24
2023/08/26 03:16:08;;;;;;;11.10;5.73;;;16.70;99.90;;;;;;5063387;28;20299;-24
2023/08/26 03:18:39;;;;;;;11.15;5.38;;;16.70;99.90;;;;;;5044414;28;20226;-24
2023/08/26 03:21:09;;;;;;;10.18;5.40;;;16.70;99.90;;;;;;5067341;28;21702;-24
2023/08/26 03:23:39;;;;;;;11.20;4.93;;;16.70;99.90;;;;;;5029083;28;20299;-24
2023/08/26 03:26:11;;;;;;;10.53;4.47;;;16.70;99.90;;;;;;5063414;28;20207;-24
2023/08/26 03:28:40;;;;;;;8.80;4.78;;;16.60;99.90;;;;;;5065230;28;20203;-23
2023/08/26 03:31:10;;;;;;;9.32;4.43;;;16.60;99.90;;;;;;5040688;28;20212;-24
2023/08/26 03:33:37;;;;;;;12.13;4.60;;;16.60;99.90;;;;;;5065888;28;20226;-24
2023/08/26 03:36:09;;;;;;;10.00;4.27;;;16.60;99.90;;;;;;5066906;28;20622;-24
2023/08/26 03:38:36;;;;;;;7.63;3.97;;;16.60;99.90;;;;;;5056970;28;20214;-24
2023/08/26 03:41:06;;;;;;;6.97;3.57;;;16.50;99.90;;;;;;5047703;28;20709;-24
2023/08/26 03:43:36;;;;;;;7.20;3.77;;;16.60;99.90;;;;;;5062080;28;20643;-24
2023/08/26 03:46:04;;;;;;;9.97;3.83;;;16.50;99.90;;;;;;5063618;28;20235;-24
2023/08/26 03:48:33;;;;;;;9.33;3.90;;;16.50;99.90;;;;;;5062443;28;20215;-24
2023/08/26 03:51:05;;;;;;;10.15;3.67;;;16.50;99.90;;;;;;5063469;28;20274;-24
2023/08/26 03:53:32;;;;;;;6.90;3.25;;;16.50;99.90;;;;;;5046159;28;20199;-24
2023/08/26 03:56:01;;;;;;;8.00;3.43;;;16.50;99.90;;;;;;5064931;28;20265;-24
2023/08/26 03:58:30;;;;;;;5.60;3.05;;;16.50;99.90;;;;;;5057520;28;20266;-24
2023/08/26 04:01:09;;;;;;;6.13;3.10;;;16.40;99.90;;;;;;5052319;28;20200;-24
2023/08/26 04:03:36;;;;;;;5.93;2.80;;;16.40;99.90;;;;;;5060393;28;20647;-31
2023/08/26 04:06:05;;;;;;;6.50;3.00;;;16.40;99.90;;;;;;5041888;28;20357;-31
2023/08/26 04:08:35;;;;;;;10.10;2.90;;;16.40;99.90;;;;;;5051225;28;20200;-31
2023/08/26 04:11:07;;;;;;;6.93;2.70;;;16.40;99.90;;;;;;5034676;28;20639;-31
2023/08/26 04:13:34;;;;;;;5.70;2.53;;;16.40;99.90;;;;;;5030915;28;20257;-32
2023/08/26 04:16:04;;;;;;;6.22;2.53;;;16.40;99.90;;;;;;5058939;28;20207;-31
2023/08/26 04:18:33;;;;;;;4.63;2.63;;;16.40;99.90;;;;;;5056523;28;21876;-31
2023/08/26 04:21:03;;;;;;;6.10;2.17;;;16.40;99.90;;;;;;5061237;28;20657;-31
2023/08/26 04:23:30;;;;;;;4.53;2.40;;;16.40;99.90;;;;;;5058310;28;20241;-31
2023/08/26 04:26:00;;;;;;;4.78;2.35;;;16.40;99.90;;;;;;5067527;28;20203;-31
2023/08/26 04:28:29;;;;;;;6.80;2.55;;;16.50;99.90;;;;;;5056282;28;20257;-31
2023/08/26 04:31:01;;;;;;;5.67;2.47;;;16.40;99.90;;;;;;5053405;28;20418;-32
2023/08/26 04:33:29;;;;;;;4.77;2.40;;;16.50;99.90;;;;;;5053038;28;20209;-31
2023/08/26 04:35:59;;;;;;;6.23;2.30;;;16.50;99.90;;;;;;5044497;28;20235;-31
2023/08/26 04:38:26;;;;;;;5.43;2.50;;;16.50;99.90;;;;;;5036200;28;20222;-31
2023/08/26 04:40:56;;;;;;;5.68;2.30;;;16.50;99.90;;;;;;5038871;28;20230;-31
2023/08/26 04:43:24;;;;;;;5.40;2.67;;;16.40;99.90;;;;;;5045098;28;20250;-31
2023/08/26 04:45:52;;;;;;;5.20;2.75;;;16.50;99.90;;;;;;5028559;28;20231;-31
2023/08/26 04:48:22;;;;;;;5.60;2.80;;;16.50;99.90;;;;;;5036979;28;20288;-31
2023/08/26 04:50:51;;;;;;;5.15;2.30;;;16.40;99.90;;;;;;5053630;28;20357;-31
2023/08/26 04:53:25;;;;;;;5.67;2.37;;;16.50;99.90;;;;;;5057002;28;20199;-31
2023/08/26 04:55:55;;;;;;;4.97;2.20;;;16.40;99.90;;;;;;5065580;28;20210;-31
2023/08/26 04:58:24;;;;;;;4.72;2.40;;;16.50;99.90;;;;;;5035461;28;20211;-31
2023/08/26 05:00:54;;;;;;;4.57;2.57;;;16.50;99.90;;;;;;5052823;28;20295;-31
2023/08/26 05:03:24;;;;;;;4.00;2.50;;;16.50;99.90;;;;;;5062510;28;20772;-31
2023/08/26 05:05:56;;;;;;;3.97;2.10;;;16.50;99.90;;;;;;5045281;28;20223;-31
2023/08/26 05:08:23;;;;;;;5.90;2.40;;;16.50;99.90;;;;;;5058025;28;20310;-31
2023/08/26 05:10:52;;;;;;;6.13;2.25;;;16.50;99.90;;;;;;5047148;28;20203;-31
2023/08/26 05:13:22;;;;;;;4.05;2.10;;;16.50;99.90;;;;;;5046730;28;20203;-31
2023/08/26 05:15:49;;;;;;;3.13;1.70;;;16.50;99.90;;;;;;5031232;28;20269;-31
2023/08/26 05:18:20;;;;;;;5.75;2.65;;;16.50;99.90;;;;;;5038416;28;20223;-31
2023/08/26 05:20:50;;;;;;;5.22;2.17;;;16.50;99.90;;;;;;5046896;28;20658;-31
2023/08/26 05:23:20;;;;;;;6.40;2.17;;;16.50;99.90;;;;;;5052962;28;20614;-31
2023/08/26 05:25:50;;;;;;;3.33;2.03;;;16.60;99.90;;;;;;5049183;28;20654;-31
2023/08/26 05:28:17;;;;;;;4.90;1.65;;;16.60;99.90;;;;;;5040757;28;20211;-31
2023/08/26 05:30:44;;;;;;;2.67;1.67;;;16.60;99.90;;;;;;5067467;28;20288;-31
2023/08/26 05:33:14;;;;;;;4.20;2.50;;;16.60;99.90;;;;;;5049761;28;20207;-31
2023/08/26 05:35:46;;;;;;;6.18;2.30;;;16.60;99.90;;;;;;5067028;28;20224;-31
2023/08/26 05:38:15;;;;;;;3.20;1.98;;;16.60;99.90;;;;;;5066934;28;20662;-31
2023/08/26 05:40:45;;;;;;;5.20;1.80;;;16.60;99.90;;;;;;5063479;28;20631;-31
2023/08/26 05:43:12;;;;;;;3.57;2.00;;;16.70;99.90;;;;;;5046525;28;20228;-31
2023/08/26 05:45:39;;;;;;;4.85;1.80;;;16.70;99.90;;;;;;5042914;28;20609;-30
2023/08/26 05:48:06;;;;;;;4.05;1.80;;;16.70;99.90;;;;;;5046689;28;20586;-31
2023/08/26 05:50:36;;;;;;;5.47;1.75;;;16.70;99.90;;;;;;5050502;28;20441;-31
2023/08/26 05:53:06;;;;;;;3.75;1.88;;;16.70;99.90;;;;;;5056517;28;20208;-31
2023/08/26 05:55:33;;;;;;;3.20;1.80;;;16.70;99.90;;;;;;5031216;28;20247;-32
2023/08/26 05:58:03;;;;;;;3.03;1.65;;;16.70;99.90;;;;;;5049636;28;20192;-31
2023/08/26 06:00:38;;;;;;;4.60;2.00;;;16.80;99.90;;;;;;5065595;28;20227;-31
2023/08/26 06:03:07;;;;;;;4.25;1.92;;;16.80;99.90;;;;;;5057317;28;20222;-31
2023/08/26 06:05:34;;;;;;;5.17;2.20;;;16.80;99.90;;;;;;5066513;28;20376;-31
2023/08/26 06:08:03;;;;;;;4.93;2.10;;;16.80;99.90;;;;;;5044951;28;20322;-31
2023/08/26 06:10:35;;;;;;;4.78;2.22;;;16.80;99.90;;;;;;5067263;28;20651;-31
2023/08/26 06:13:02;;;;;;;5.07;2.10;;;16.90;99.90;;;;;;5049193;28;20226;-31
2023/08/26 06:15:32;;;;;;;4.80;2.42;;;16.90;99.90;;;;;;5037419;28;20216;-31
2023/08/26 06:18:01;;;;;;;5.45;2.25;;;16.90;99.90;;;;;;5024854;28;20651;-30
2023/08/26 06:20:30;;;;;;;2.38;1.70;;;16.90;99.90;;;;;;5052699;28;20310;-31
2023/08/26 06:23:00;;;;;;;3.15;1.85;;;16.90;99.90;;;;;;5052611;28;20221;-31
2023/08/26 06:25:27;;;;;;;2.80;1.67;;;17.00;99.90;;;;;;5046878;28;20208;-31
2023/08/26 06:27:55;;;;;;;4.25;1.98;;;17.00;99.90;;;;;;5039953;28;20203;-31
2023/08/26 06:30:24;;;;;;;3.17;1.70;;;17.00;99.90;;;;;;5036607;28;20674;-31
2023/08/26 06:32:52;;;;;;;9.48;2.28;;;17.00;99.90;;;;;;5046559;28;20215;-31
2023/08/26 06:35:26;;;;;;;8.20;2.77;;;17.00;99.90;;;;;;5070012;28;20229;-31
2023/08/26 06:37:54;;;;;;;26.70;5.30;;;17.00;99.90;;;;;;5067595;28;20269;-31
2023/08/26 06:40:24;;;;;;;9.90;2.75;;;17.10;99.90;;;;;;5050694;28;20219;-31
2023/08/26 06:42:51;;;;;;;4.22;1.65;;;17.10;99.90;;;;;;5067083;28;20947;-31
2023/08/26 06:45:23;;;;;;;6.30;1.70;;;17.10;99.90;;;;;;5064243;28;20232;-31
2023/08/26 06:47:54;;;;;;;3.70;1.52;;;17.20;99.90;;;;;;5029936;28;20204;-31
2023/08/26 06:50:23;;;;;;;4.32;1.83;;;17.20;99.90;;;;;;5065744;28;20589;-31
2023/08/26 06:52:50;;;;;;;2.50;1.30;;;17.10;99.90;;;;;;5063286;28;20254;-31
2023/08/26 06:55:25;;;;;;;3.75;1.58;;;17.20;99.90;;;;;;5030640;28;20211;-31
2023/08/26 06:57:52;;;;;;;3.22;1.52;;;17.20;99.90;;;;;;5056016;28;20195;-31
2023/08/26 07:00:22;;;;;;;2.00;1.20;;;17.20;99.90;;;;;;5030702;28;20686;-31
2023/08/26 07:02:52;;;;;;;2.00;1.30;;;17.30;99.90;;;;;;5033023;28;20377;-31
2023/08/26 07:05:22;;;;;;;3.22;1.50;;;17.30;99.90;;;;;;5019095;28;20391;-31
2023/08/26 07:07:53;;;;;;;4.53;1.70;;;17.30;99.90;;;;;;5045672;28;20710;-31
2023/08/26 07:10:26;;;;;;;3.42;1.50;;;17.40;99.90;;;;;;5044732;28;20318;-31
2023/08/26 07:12:53;;;;;;;3.87;1.63;;;17.40;99.90;;;;;;5019001;28;20588;-31
2023/08/26 07:15:22;;;;;;;6.38;1.67;;;17.40;99.90;;;;;;5039581;28;20697;-31
2023/08/26 07:17:52;;;;;;;2.88;1.70;;;17.50;99.90;;;;;;5060517;28;20219;-31
2023/08/26 07:20:19;;;;;;;3.70;1.30;;;17.60;99.90;;;;;;5048492;28;20299;-31
2023/08/26 07:22:46;;;;;;;2.83;1.40;;;17.60;99.90;;;;;;5046650;28;20222;-31
2023/08/26 07:25:15;;;;;;;3.58;1.20;;;17.70;99.90;;;;;;5046558;28;20211;-31
2023/08/26 07:27:42;;;;;;;2.58;1.50;;;17.70;99.90;;;;;;5051707;28;20295;-31
2023/08/26 07:30:13;;;;;;;3.90;1.55;;;17.70;99.90;;;;;;5047129;28;20294;-31
2023/08/26 07:32:41;;;;;;;4.75;1.40;;;17.80;99.90;;;;;;5045338;28;20208;-30
2023/08/26 07:35:11;;;;;;;5.22;1.40;;;17.80;99.90;;;;;;5035393;28;20231;-31
2023/08/26 07:37:43;;;;;;;6.53;1.73;;;17.80;99.90;;;;;;5058905;28;20418;-31
2023/08/26 07:40:14;;;;;;;2.65;1.55;;;17.90;99.90;;;;;;5045055;28;20205;-31
2023/08/26 07:42:43;;;;;;;4.88;1.50;;;17.90;99.90;;;;;;5042897;28;20231;-31
2023/08/26 07:45:11;;;;;;;4.88;1.40;;;17.90;99.90;;;;;;5064311;28;20249;-23
2023/08/26 07:47:43;;;;;;;3.47;1.30;;;18.00;99.90;;;;;;5043948;28;20741;-23
2023/08/26 07:50:18;;;;;;;6.88;1.63;;;18.00;99.90;;;;;;5050753;28;20618;-23
2023/08/26 07:52:45;;;;;;;2.25;1.40;;;18.00;99.90;;;;;;5025690;28;20215;-23
2023/08/26 07:55:15;;;;;;;2.38;1.30;;;18.10;99.90;;;;;;5044500;28;20200;-23
2023/08/26 07:57:46;;;;;;;3.97;1.50;;;18.10;99.90;;;;;;5050610;28;20211;-23
2023/08/26 08:00:16;;;;;;;2.40;1.10;;;18.10;99.90;;;;;;5058971;28;20641;-23
2023/08/26 08:02:45;;;;;;;2.13;1.20;;;18.20;99.90;;;;;;5046941;28;20663;-23
2023/08/26 08:05:12;;;;;;;2.78;1.23;;;18.20;99.90;;;;;;5063807;28;20199;-23
2023/08/26 08:07:42;;;;;;;1.73;1.23;;;18.30;99.90;;;;;;5062703;28;20214;-23
2023/08/26 08:10:10;;;;;;;3.05;1.17;;;18.30;99.90;;;;;;5041879;28;20218;-24
2023/08/26 08:12:37;;;;;;;3.70;1.23;;;18.40;99.90;;;;;;5037634;28;20616;-30
2023/08/26 08:15:11;;;;;;;1.77;1.05;;;18.40;99.90;;;;;;5063756;28;20306;-30
2023/08/26 08:17:40;;;;;;;1.27;1.05;;;18.40;99.90;;;;;;5043805;28;20562;-30
2023/08/26 08:20:08;;;;;;;4.55;1.00;;;18.50;99.90;;;;;;5045995;28;20204;-23
2023/08/26 08:22:43;;;;;;;3.38;1.33;;;18.50;99.90;;;;;;5058800;28;20208;-23
2023/08/26 08:25:12;;;;;;;3.58;1.30;;;18.60;99.90;;;;;;5025649;28;20654;-23
2023/08/26 08:27:44;;;;;;;3.65;1.20;;;18.60;99.90;;;;;;5031442;28;20306;-23
2023/08/26 08:30:11;;;;;;;3.38;1.10;;;18.70;99.90;;;;;;5045252;28;20200;-23
2023/08/26 08:32:41;;;;;;;1.23;0.90;;;18.70;99.90;;;;;;5043243;28;20219;-23
2023/08/26 08:35:09;;;;;;;4.70;1.13;;;18.80;99.90;;;;;;5026173;28;20208;-24
2023/08/26 08:37:38;;;;;;;1.98;1.00;;;18.80;99.90;;;;;;5044219;28;20239;-23
2023/08/26 08:40:06;;;;;;;3.78;1.15;;;18.80;99.90;;;;;;5072917;28;20305;-23
2023/08/26 08:42:34;;;;;;;3.10;1.13;;;18.80;99.90;;;;;;5063836;28;20253;-23
2023/08/26 08:45:05;;;;;;;3.88;1.00;;;18.90;99.90;;;;;;5063144;28;20254;-23
2023/08/26 08:47:33;;;;;;;6.15;1.55;;;18.90;99.90;;;;;;5045876;28;20743;-23
2023/08/26 08:50:02;;;;;;;4.00;1.13;;;19.00;99.90;;;;;;5060885;28;20200;-23
2023/08/26 08:52:30;;;;;;;2.25;1.23;;;19.00;99.90;;;;;;5039371;28;20226;-23
2023/08/26 08:54:59;;;;;;;3.55;1.13;;;19.10;99.90;;;;;;5048279;28;20192;-23
2023/08/26 08:57:37;;;;;;;4.38;1.30;;;19.10;99.90;;;;;;5062019;28;20627;-23
2023/08/26 09:00:06;;;;;;;1.42;0.98;;;19.20;99.90;;;;;;5066781;28;20229;-23
2023/08/26 09:02:38;;;;;;;2.80;1.10;;;19.20;99.90;;;;;;5055058;28;20263;-23
2023/08/26 09:05:05;;;;;;;3.03;1.00;;;19.30;99.90;;;;;;5066848;28;20217;-23
2023/08/26 09:07:34;;;;;;;1.45;0.80;;;19.30;99.90;;;;;;5051373;28;20322;-23
2023/08/26 09:10:05;;;;;;;2.92;1.30;;;19.40;99.90;;;;;;5048610;28;20254;-23
2023/08/26 09:12:35;;;;;;;3.45;1.30;;;19.40;99.90;;;;;;5054152;28;20346;-23
2023/08/26 09:15:03;;;;;;;1.92;1.00;;;19.50;99.90;;;;;;5065979;28;20235;-23
2023/08/26 09:17:33;;;;;;;2.33;1.27;;;19.60;99.90;;;;;;5035151;28;20199;-23
2023/08/26 09:20:04;;;;;;;3.83;0.90;;;19.60;99.90;;;;;;5049367;28;20208;-23
2023/08/26 09:22:32;;;;;;;1.45;0.90;;;19.70;99.90;;;;;;5067740;28;20199;-23
2023/08/26 09:25:04;;;;;;;2.90;0.90;;;19.70;99.90;;;;;;5043193;28;20208;-23
2023/08/26 09:27:41;;;;;;;5.28;1.38;;;19.80;99.90;;;;;;5052818;28;20196;-23
2023/08/26 09:30:11;;;;;;;4.13;1.17;;;19.80;99.90;;;;;;5059579;28;20650;-23
2023/08/26 09:32:49;;;;;;;3.92;1.27;;;19.90;99.90;;;;;;5051717;28;20216;-23
2023/08/26 09:35:20;;;;;;;3.20;0.95;;;19.90;99.90;;;;;;5053244;28;20565;-23
2023/08/26 09:38:09;;;;;;;1.83;1.00;;;20.00;99.90;;;;;;5048227;28;20215;-23
2023/08/26 09:40:39;;;;;;;2.90;1.20;;;20.00;99.90;;;;;;5047918;28;20223;-31
2023/08/26 09:43:07;;;;;;;2.25;1.15;;;20.00;99.90;;;;;;5046620;28;20322;-31
2023/08/26 09:45:38;;;;;;;2.10;1.15;;;20.10;99.90;;;;;;5045423;28;20770;-31
2023/08/26 09:48:19;;;;;;;3.60;1.17;;;20.10;99.90;;;;;;5029001;28;20216;-31
2023/08/26 09:50:49;;;;;;;3.05;1.20;;;20.20;99.90;;;;;;5046016;28;20196;-31
2023/08/26 09:53:33;;;;;;;3.00;1.10;;;20.30;99.90;;;;;;5045026;28;20700;-31
2023/08/26 09:56:02;;;;;;;2.28;1.25;;;20.30;99.90;;;;;;5044754;28;20266;-23
2023/08/26 09:58:29;;;;;;;3.58;1.50;;;20.40;99.90;;;;;;5048090;28;20211;-23
2023/08/26 10:00:57;;;;;;;3.15;1.20;;;20.40;99.90;;;;;;5049158;28;20306;-23
2023/08/26 10:03:27;;;;;;;3.20;1.10;;;20.40;99.90;;;;;;5051210;28;20270;-23
2023/08/26 10:06:01;;;;;;;1.73;1.00;;;20.50;99.90;;;;;;5047681;28;20216;-23
2023/08/26 10:08:32;;;;;;;1.67;1.05;;;20.50;99.90;;;;;;5024305;28;20258;-23
2023/08/26 10:11:04;;;;;;;0.88;0.70;;;20.60;99.90;;;;;;5060452;28;20783;-23
2023/08/26 10:13:36;;;;;;;3.13;0.98;;;20.60;99.90;;;;;;5055290;28;20611;-23
2023/08/26 10:16:08;;;;;;;2.53;1.00;;;20.70;99.90;;;;;;5040654;28;20302;-23
2023/08/26 10:18:49;;;;;;;1.75;0.93;;;20.70;99.90;;;;;;5048242;28;20506;-23
2023/08/26 10:21:19;;;;;;;8.65;2.60;;;20.80;99.90;;;;;;5062569;28;20665;-23
2023/08/26 10:23:49;;;;;;;2.65;1.00;;;20.70;99.90;;;;;;5062194;28;20586;-23
2023/08/26 10:26:19;;;;;;;2.08;0.90;;;20.80;99.90;;;;;;5063960;28;20752;-23
2023/08/26 10:28:50;;;;;;;4.75;0.85;;;20.80;99.90;;;;;;5032632;28;20596;-23
2023/08/26 10:31:20;;;;;;;1.75;1.00;;;20.80;99.90;;;;;;5060570;28;20231;-23
2023/08/26 10:34:05;;;;;;;3.45;1.15;;;20.90;99.90;;;;;;5034463;28;20211;-23
2023/08/26 10:36:37;;;;;;;2.58;1.23;;;20.90;99.90;;;;;;5049617;28;20191;-23
2023/08/26 10:39:20;;;;;;;3.92;1.17;;;20.90;99.90;;;;;;5056055;28;20334;-24
2023/08/26 10:42:12;;;;;;;2.75;1.00;;;20.90;99.90;;;;;;5050522;28;20218;-25
2023/08/26 10:44:44;;;;;;;2.17;1.17;;;21.00;99.90;;;;;;5032418;28;20319;-23
2023/08/26 10:47:12;;;;;;;1.10;1.00;;;21.00;99.90;;;;;;5047664;28;20212;-23
2023/08/26 10:49:43;;;;;;;3.28;1.10;;;21.10;99.90;;;;;;5044470;28;20204;-23
2023/08/26 10:52:18;;;;;;;3.15;1.08;;;21.20;99.90;;;;;;5042731;28;20205;-23
2023/08/26 10:54:47;;;;;;;2.42;0.98;;;21.20;99.90;;;;;;5049036;28;20212;-23
2023/08/26 10:57:16;;;;;;;2.92;1.10;;;21.20;99.90;;;;;;5034918;28;20237;-23
2023/08/26 10:59:44;;;;;;;2.40;1.10;;;21.30;99.90;;;;;;5042547;28;20221;-23
2023/08/26 11:02:12;;;;;;;7.85;1.65;;;21.30;99.90;;;;;;5027549;28;20387;-23
2023/08/26 11:04:45;;;;;;;4.38;1.02;;;21.30;99.90;;;;;;5025494;28;20220;-23
2023/08/26 11:07:20;;;;;;;4.50;1.30;;;21.30;99.90;;;;;;5022073;28;20261;-23
2023/08/26 11:09:47;;;;;;;2.95;1.00;;;21.40;99.90;;;;;;5021889;28;20205;-24
2023/08/26 11:12:28;;;;;;;5.13;1.17;;;21.40;99.90;;;;;;5066383;28;20195;-23
2023/08/26 11:15:07;;;;;;;3.28;1.20;;;21.50;99.90;;;;;;5046491;28;20220;-23
2023/08/26 11:17:36;;;;;;;3.17;1.00;;;21.40;99.90;;;;;;5041048;28;20311;-23
2023/08/26 11:20:20;;;;;;;1.88;1.10;;;21.40;99.90;;;;;;5036649;28;20512;-23
2023/08/26 11:22:50;;;;;;;2.40;1.15;;;21.40;99.90;;;;;;5037493;28;20306;-23
2023/08/26 11:25:20;;;;;;;1.17;1.00;;;21.40;99.90;;;;;;5041928;28;20702;-23
2023/08/26 11:27:47;;;;;;;2.00;0.90;;;21.40;99.90;;;;;;5028732;28;20212;-31
2023/08/26 11:30:14;;;;;;;1.42;1.10;;;21.40;99.90;;;;;;5042515;28;20200;-32
2023/08/26 11:32:42;;;;;;;3.72;1.17;;;21.50;99.90;;;;;;5047110;28;20213;-32
2023/08/26 11:35:16;;;;;;;3.50;1.02;;;21.50;99.90;;;;;;5058459;28;20682;-32
2023/08/26 11:37:46;;;;;;;1.45;0.80;;;21.50;99.90;;;;;;5027116;28;20213;-24
2023/08/26 11:40:15;;;;;;;3.28;0.90;;;21.60;99.90;;;;;;5039956;28;20204;-23
2023/08/26 11:42:52;;;;;;;2.20;0.90;;;21.60;99.90;;;;;;5040279;28;20219;-23
2023/08/26 11:45:22;;;;;;;2.50;1.08;;;21.60;99.90;;;;;;5042841;28;20607;-23
2023/08/26 11:47:49;;;;;;;1.27;0.80;;;21.60;99.90;;;;;;5032857;28;20665;-23
2023/08/26 11:50:22;;;;;;;1.85;0.80;;;21.60;99.90;;;;;;5048034;28;20227;-24
2023/08/26 11:52:49;;;;;;;3.08;1.40;;;21.60;99.90;;;;;;5077310;28;20647;-23
2023/08/26 11:55:19;;;;;;;3.45;1.08;;;21.60;99.90;;;;;;5046544;28;20214;-23
2023/08/26 11:57:51;;;;;;;1.38;0.75;;;21.60;99.90;;;;;;5038882;28;20672;-23
2023/08/26 12:00:19;;;;;;;1.75;0.60;;;21.60;99.90;;;;;;5063282;28;20268;-23
2023/08/26 12:02:50;;;;;;;2.70;0.80;;;21.60;99.90;;;;;;5048611;28;20214;-23
2023/08/26 12:05:20;;;;;;;2.08;0.70;;;21.60;99.90;;;;;;5056129;28;20226;-23
2023/08/26 12:07:57;;;;;;;1.42;0.80;;;21.60;99.90;;;;;;5043819;28;20224;-23
2023/08/26 12:10:27;;;;;;;2.30;0.70;;;21.60;99.90;;;;;;5041551;28;20285;-23
2023/08/26 12:13:03;;;;;;;2.58;0.68;;;21.60;99.90;;;;;;5045226;28;20207;-23
2023/08/26 12:15:33;;;;;;;1.17;0.55;;;21.60;99.90;;;;;;5063593;28;20213;-23
2023/08/26 12:18:04;;;;;;;1.20;0.63;;;21.60;99.90;;;;;;5046436;28;20199;-23
2023/08/26 12:20:32;;;;;;;0.98;0.70;;;21.60;99.90;;;;;;5034996;28;20287;-23
2023/08/26 12:23:03;;;;;;;2.58;0.80;;;21.60;99.90;;;;;;5026120;28;20212;-23
2023/08/26 12:25:35;;;;;;;1.42;0.80;;;21.70;99.90;;;;;;5075630;28;20226;-23
2023/08/26 12:28:14;;;;;;;2.15;0.60;;;21.70;99.90;;;;;;5065705;28;20195;-23
2023/08/26 12:30:45;;;;;;;2.67;0.95;;;21.80;99.90;;;;;;5075025;28;20212;-23
2023/08/26 12:33:13;;;;;;;2.00;0.82;;;21.80;99.90;;;;;;5029273;28;20973;-23
2023/08/26 12:35:54;;;;;;;1.05;0.63;;;21.80;99.90;;;;;;5026062;28;20247;-24
2023/08/26 12:38:23;;;;;;;1.02;0.70;;;21.90;99.90;;;;;;5042306;28;20207;-24
2023/08/26 12:40:51;;;;;;;1.35;0.68;;;21.90;99.90;;;;;;5044689;28;20739;-23
2023/08/26 12:43:20;;;;;;;1.15;0.70;;;22.00;99.90;;;;;;5025834;28;20650;-24
2023/08/26 12:45:54;;;;;;;2.25;0.70;;;22.00;99.90;;;;;;5026508;28;20236;-23
2023/08/26 12:48:21;;;;;;;1.42;0.60;;;22.00;99.90;;;;;;5026448;28;20725;-23
2023/08/26 12:51:08;;;;;;;0.80;0.50;;;22.00;99.90;;;;;;5033694;28;20197;-24
2023/08/26 12:53:40;;;;;;;1.35;0.73;;;22.00;99.90;;;;;;5043791;28;20670;-23
2023/08/26 12:56:07;;;;;;;1.08;0.60;;;22.10;99.90;;;;;;5052171;28;20211;-23
2023/08/26 12:58:36;;;;;;;0.73;0.40;;;22.20;99.90;;;;;;5043709;28;20667;-32
2023/08/26 13:01:06;;;;;;;1.00;0.50;;;22.20;99.90;;;;;;5051530;28;20288;-32